Saint Anne, Missouri
Current Conditions -  °F | °C
As of 5:51 PM on Saturday 20 Dec 2014 (Local Time) from KSTL Reporting Station
Overcast Overcast  
Wind Chill: 38°   Ceiling: 2800
Heat Index: 43°   Visibility: 9mi
Dew Point: 33°   Wind: 8mph
Humidity: 68%   Direction: 140°SE
Pressure: 30.24"   Gusts: NA
Location:  38.7263°N, 90.3885°W
Report Text: KSTL 202351Z 14007KT 9SM OVC028 06/01 A3024 RMK AO2 SLP246 T00610006 10061 20044 53004
Loading
Personal Weather Stations






























Interactive Weather Map New forecast layout! Learn more

10-Day Weather Forecast

Advertisements
Track Severe Weather on mobile